Uckfield, United Kingdom
Current Conditions -  °F | °C
As of 9:50 AM on Thursday 29 Jan 2015 (Local Time) from EGKK Reporting Station
Few Clouds Few Clouds  
Wind Chill: 32°   Ceiling: Unl
Heat Index: 39°   Visibility: 6mi
Dew Point: 34°   Wind: 12mph
Humidity: 81%   Direction: 230°SW
Pressure: 29.18"   Gusts: NA
Location:  50.97°N, 0.1°E
Report Text: EGKK 290950Z 23010KT 9999 FEW020 04/01 Q0988
Loading
Personal Weather Stations






























Interactive Weather Map New forecast layout! Learn more

10-Day Weather Forecast

Advertisements
Track Severe Weather on mobile